Time;durP1;ratioP1;P1;durP2;ratioP2;P2;SDS_P1;SDS_P2;PMS_P1;PMS_P2;Temp;Humidity;BMP_temperature;BMP_pressure;BME280_temperature;BME280_humidity;BME280_pressure;Samples;Min_cycle;Max_cycle;Signal;HPM_P1;HPM_P2
2022/07/29 00:02:25;;;;;;;5.90;2.60;;;;;;;;;;4999765;28;20108;-86
2022/07/29 00:04:52;;;;;;;5.90;2.28;;;;;;;;;;5000701;28;20137;-85
2022/07/29 00:07:19;;;;;;;3.65;2.53;;;;;;;;;;4999212;28;20388;-85
2022/07/29 00:09:46;;;;;;;4.72;2.50;;;;;;;;;;4998946;28;20077;-85
2022/07/29 00:12:18;;;;;;;2.70;1.98;;;;;;;;;;5000323;28;20137;-85
2022/07/29 00:14:52;;;;;;;3.05;2.50;;;;;;;;;;4999179;28;20137;-85
2022/07/29 00:17:19;;;;;;;4.00;2.42;;;;;;;;;;4996899;28;20045;-85
2022/07/29 00:19:46;;;;;;;3.30;2.10;;;;;;;;;;4997297;28;20096;-85
2022/07/29 00:22:14;;;;;;;3.38;2.40;;;;;;;;;;4996986;28;20093;-85
2022/07/29 00:24:41;;;;;;;6.18;2.20;;;;;;;;;;4997028;28;20042;-85
2022/07/29 00:27:08;;;;;;;4.38;2.60;;;;;;;;;;4997102;28;20112;-85
2022/07/29 00:29:35;;;;;;;4.05;2.35;;;;;;;;;;4999734;28;20092;-86
2022/07/29 00:32:03;;;;;;;2.88;2.30;;;;;;;;;;4998961;28;20050;-85
2022/07/29 00:37:16;;;;;;;5.50;2.60;;;;;;;;;;5016585;28;20050;-85
2022/07/29 00:39:43;;;;;;;3.20;2.03;;;;;;;;;;4999440;28;20104;-85
2022/07/29 00:42:11;;;;;;;3.63;2.00;;;;;;;;;;4999342;28;20502;-86
2022/07/29 00:44:41;;;;;;;5.60;2.20;;;;;;;;;;5001065;28;20042;-85
2022/07/29 00:47:09;;;;;;;4.88;2.30;;;;;;;;;;5001803;28;20046;-86
2022/07/29 00:49:39;;;;;;;6.70;2.47;;;;;;;;;;5003246;28;20050;-85
2022/07/29 00:52:07;;;;;;;4.95;2.20;;;;;;;;;;5018265;28;20096;-86
2022/07/29 00:54:34;;;;;;;4.38;1.92;;;;;;;;;;5001788;28;20046;-86
2022/07/29 00:57:10;;;;;;;7.38;2.67;;;;;;;;;;4999945;28;20050;-85
2022/07/29 00:59:37;;;;;;;4.03;2.70;;;;;;;;;;4998136;28;20045;-84
2022/07/29 01:02:04;;;;;;;4.20;2.55;;;;;;;;;;4998058;28;20491;-85
2022/07/29 01:04:32;;;;;;;5.32;2.53;;;;;;;;;;4997950;28;20050;-85
2022/07/29 01:07:01;;;;;;;5.65;2.15;;;;;;;;;;5013949;28;20569;-85
2022/07/29 01:09:29;;;;;;;5.68;1.92;;;;;;;;;;4996537;28;20115;-85
2022/07/29 01:12:17;;;;;;;7.03;2.35;;;;;;;;;;4998630;28;20068;-85
2022/07/29 01:14:44;;;;;;;3.78;2.25;;;;;;;;;;4996336;28;20093;-85
2022/07/29 01:17:21;;;;;;;4.90;2.20;;;;;;;;;;4996129;28;20077;-85
2022/07/29 01:19:49;;;;;;;6.15;2.55;;;;;;;;;;4996123;28;20057;-85
2022/07/29 01:22:39;;;;;;;7.55;2.70;;;;;;;;;;4996093;28;20096;-85
2022/07/29 01:25:20;;;;;;;2.97;2.58;;;;;;;;;;4986200;28;20074;-85
2022/07/29 01:28:06;;;;;;;4.25;2.60;;;;;;;;;;4996042;28;20627;-85
2022/07/29 01:30:37;;;;;;;3.55;2.20;;;;;;;;;;4996411;28;20045;-85
2022/07/29 01:33:08;;;;;;;3.15;2.33;;;;;;;;;;4995859;28;20491;-85
2022/07/29 01:35:40;;;;;;;5.28;2.25;;;;;;;;;;4995983;28;20499;-85
2022/07/29 01:38:11;;;;;;;3.42;2.50;;;;;;;;;;4995720;28;20046;-85
2022/07/29 01:40:45;;;;;;;5.78;2.53;;;;;;;;;;4995681;28;20458;-85
2022/07/29 01:43:19;;;;;;;3.28;2.55;;;;;;;;;;4995982;28;20085;-85
2022/07/29 01:46:04;;;;;;;6.00;2.85;;;;;;;;;;4996117;28;20050;-86
2022/07/29 01:48:41;;;;;;;7.53;2.72;;;;;;;;;;4996710;28;20053;-85
2022/07/29 01:51:12;;;;;;;5.57;2.30;;;;;;;;;;4996519;28;20514;-85
2022/07/29 01:53:44;;;;;;;5.35;2.13;;;;;;;;;;4996401;28;20200;-85
2022/07/29 01:56:12;;;;;;;4.28;2.58;;;;;;;;;;4996544;28;20112;-85
2022/07/29 01:58:41;;;;;;;6.85;2.35;;;;;;;;;;4996448;28;20049;-85
2022/07/29 02:01:10;;;;;;;3.70;2.47;;;;;;;;;;4996164;28;20173;-85
2022/07/29 02:03:38;;;;;;;4.20;2.33;;;;;;;;;;4995965;28;20052;-85
2022/07/29 02:06:07;;;;;;;4.68;2.15;;;;;;;;;;4996105;28;20204;-85
2022/07/29 02:08:34;;;;;;;3.65;1.90;;;;;;;;;;5017615;28;20053;-85
2022/07/29 02:11:04;;;;;;;3.75;2.45;;;;;;;;;;4999845;28;20085;-85
2022/07/29 02:13:32;;;;;;;7.47;2.30;;;;;;;;;;5000034;28;20080;-85
2022/07/29 02:16:00;;;;;;;3.17;2.40;;;;;;;;;;5017491;28;20108;-86
2022/07/29 02:18:28;;;;;;;2.38;2.17;;;;;;;;;;5000034;28;20414;-85
2022/07/29 02:20:56;;;;;;;3.83;2.45;;;;;;;;;;4999730;28;20096;-85
2022/07/29 02:23:24;;;;;;;2.40;2.08;;;;;;;;;;4999553;28;20054;-85
2022/07/29 02:25:58;;;;;;;6.20;2.30;;;;;;;;;;4999347;28;20081;-85
2022/07/29 02:28:27;;;;;;;4.78;2.00;;;;;;;;;;4999185;28;20046;-85
2022/07/29 02:30:56;;;;;;;4.53;2.70;;;;;;;;;;4998976;28;20046;-85
2022/07/29 02:33:24;;;;;;;4.65;2.45;;;;;;;;;;4999323;28;20048;-85
2022/07/29 02:35:52;;;;;;;5.30;2.55;;;;;;;;;;4999118;28;20081;-85
2022/07/29 02:41:11;;;;;;;5.45;2.40;;;;;;;;;;5016143;28;20101;-85
2022/07/29 02:43:39;;;;;;;4.72;2.30;;;;;;;;;;4999165;28;20074;-85
2022/07/29 02:46:09;;;;;;;4.55;2.22;;;;;;;;;;4998228;28;20081;-85
2022/07/29 02:49:12;;;;;;;2.78;2.40;;;;;;;;;;5001492;28;20045;-85
2022/07/29 02:51:47;;;;;;;4.05;2.00;;;;;;;;;;4998602;28;20128;-85
2022/07/29 02:54:22;;;;;;;4.65;2.50;;;;;;;;;;4998460;28;20050;-85
2022/07/29 02:56:52;;;;;;;5.38;2.55;;;;;;;;;;5015715;28;20089;-85
2022/07/29 02:59:22;;;;;;;3.58;2.13;;;;;;;;;;5015626;28;20070;-85
2022/07/29 03:01:50;;;;;;;3.85;2.22;;;;;;;;;;4998278;28;20050;-85
2022/07/29 03:04:18;;;;;;;3.10;2.40;;;;;;;;;;4998987;28;20050;-85
2022/07/29 03:06:46;;;;;;;8.05;2.20;;;;;;;;;;5016788;28;20423;-85
2022/07/29 03:09:13;;;;;;;3.47;2.40;;;;;;;;;;4999296;28;20093;-85
2022/07/29 03:11:41;;;;;;;3.22;2.30;;;;;;;;;;5000236;28;20046;-85
2022/07/29 03:14:17;;;;;;;2.80;2.00;;;;;;;;;;5000640;28;20054;-85
2022/07/29 03:16:46;;;;;;;3.25;2.70;;;;;;;;;;4999208;28;20065;-85
2022/07/29 03:19:13;;;;;;;3.95;2.50;;;;;;;;;;4999242;28;20049;-85
2022/07/29 03:21:41;;;;;;;3.33;2.00;;;;;;;;;;4999566;28;20112;-85
2022/07/29 03:24:08;;;;;;;3.55;2.30;;;;;;;;;;4999531;28;20069;-85
2022/07/29 03:26:37;;;;;;;2.88;2.30;;;;;;;;;;4999152;28;20449;-85
2022/07/29 03:29:04;;;;;;;4.43;2.33;;;;;;;;;;5016785;28;20046;-85
2022/07/29 03:31:31;;;;;;;4.30;2.67;;;;;;;;;;4999678;28;20050;-85
2022/07/29 03:33:59;;;;;;;2.85;2.40;;;;;;;;;;4999239;28;20125;-85
2022/07/29 03:36:26;;;;;;;5.75;2.40;;;;;;;;;;5016646;28;20430;-86
2022/07/29 03:38:54;;;;;;;4.90;2.50;;;;;;;;;;4999300;28;20077;-86
2022/07/29 03:41:22;;;;;;;3.13;1.95;;;;;;;;;;5016823;28;20160;-85
2022/07/29 03:43:50;;;;;;;3.80;2.17;;;;;;;;;;4999714;28;20065;-85
2022/07/29 03:46:18;;;;;;;2.80;2.25;;;;;;;;;;5017805;28;20446;-85
2022/07/29 03:48:48;;;;;;;5.65;2.75;;;;;;;;;;4999888;28;20058;-85
2022/07/29 03:51:15;;;;;;;4.82;2.70;;;;;;;;;;4999314;28;20046;-85
2022/07/29 03:53:44;;;;;;;3.33;2.42;;;;;;;;;;4999310;28;20046;-85
2022/07/29 03:56:16;;;;;;;3.30;2.58;;;;;;;;;;4999837;28;20057;-85
2022/07/29 03:58:44;;;;;;;5.18;3.00;;;;;;;;;;5001003;28;20582;-85
2022/07/29 04:01:12;;;;;;;3.47;2.65;;;;;;;;;;5000510;28;20075;-85
2022/07/29 04:03:39;;;;;;;3.88;2.50;;;;;;;;;;4999811;28;20510;-85
2022/07/29 04:06:08;;;;;;;3.83;2.67;;;;;;;;;;5000322;28;20056;-85
2022/07/29 04:08:35;;;;;;;4.45;2.67;;;;;;;;;;4999519;28;20054;-86
2022/07/29 04:11:03;;;;;;;3.35;2.50;;;;;;;;;;5000543;28;20104;-85
2022/07/29 04:13:31;;;;;;;4.60;2.60;;;;;;;;;;5001777;28;20096;-86
2022/07/29 04:15:58;;;;;;;3.50;2.40;;;;;;;;;;4998515;28;20077;-85
2022/07/29 04:18:25;;;;;;;2.50;2.22;;;;;;;;;;4997626;28;20046;-84
2022/07/29 04:20:53;;;;;;;3.45;2.20;;;;;;;;;;4996938;28;20049;-84
2022/07/29 04:23:20;;;;;;;5.82;2.50;;;;;;;;;;5016955;28;20049;-85
2022/07/29 04:25:47;;;;;;;6.07;3.15;;;;;;;;;;5003162;28;20076;-86
2022/07/29 04:28:14;;;;;;;8.57;3.78;;;;;;;;;;5005304;28;20045;-86
2022/07/29 04:30:43;;;;;;;5.22;2.80;;;;;;;;;;5004835;28;20050;-86
2022/07/29 04:33:10;;;;;;;5.40;3.58;;;;;;;;;;5002734;28;20049;-86
2022/07/29 04:35:38;;;;;;;3.20;2.55;;;;;;;;;;5002941;28;20050;-86
2022/07/29 04:38:16;;;;;;;8.23;2.70;;;;;;;;;;5006349;28;20057;-86
2022/07/29 04:40:44;;;;;;;5.65;2.40;;;;;;;;;;4999396;28;20486;-86
2022/07/29 04:43:13;;;;;;;7.82;2.60;;;;;;;;;;4996310;28;20054;-85
2022/07/29 04:45:41;;;;;;;9.18;2.58;;;;;;;;;;4994948;28;20070;-85
2022/07/29 04:48:08;;;;;;;6.95;2.63;;;;;;;;;;4995069;28;20057;-85
2022/07/29 04:50:38;;;;;;;7.20;2.30;;;;;;;;;;4994828;28;20043;-85
2022/07/29 04:53:05;;;;;;;5.57;2.00;;;;;;;;;;4994493;28;20046;-85
2022/07/29 04:55:32;;;;;;;5.13;2.22;;;;;;;;;;4995132;28;20150;-85
2022/07/29 04:58:00;;;;;;;6.13;2.50;;;;;;;;;;4994463;28;20085;-85
2022/07/29 05:00:28;;;;;;;5.57;2.53;;;;;;;;;;4993986;28;20050;-85
2022/07/29 05:02:59;;;;;;;3.95;2.38;;;;;;;;;;4995185;28;20073;-85
2022/07/29 05:05:27;;;;;;;6.25;2.63;;;;;;;;;;4994004;28;20105;-84
2022/07/29 05:07:55;;;;;;;5.80;2.60;;;;;;;;;;4993737;28;20487;-85
2022/07/29 05:10:22;;;;;;;11.02;3.22;;;;;;;;;;4993701;28;20097;-85
2022/07/29 05:12:49;;;;;;;11.35;2.92;;;;;;;;;;4994193;28;20455;-85
2022/07/29 05:15:17;;;;;;;9.70;2.50;;;;;;;;;;4993488;28;20050;-85
2022/07/29 05:17:44;;;;;;;6.70;2.42;;;;;;;;;;4994370;28;20046;-85
2022/07/29 05:20:11;;;;;;;10.25;2.72;;;;;;;;;;4993967;28;20073;-85
2022/07/29 05:22:39;;;;;;;16.33;8.68;;;;;;;;;;4993427;28;20073;-85
2022/07/29 05:25:06;;;;;;;9.55;4.22;;;;;;;;;;4992663;28;20562;-85
2022/07/29 05:27:37;;;;;;;5.07;2.90;;;;;;;;;;4992404;28;20097;-85
2022/07/29 05:30:04;;;;;;;7.93;2.40;;;;;;;;;;4992548;28;20077;-85
2022/07/29 05:32:31;;;;;;;9.85;3.30;;;;;;;;;;4992627;28;20054;-85
2022/07/29 05:34:59;;;;;;;7.88;3.38;;;;;;;;;;4992430;28;20070;-85
2022/07/29 05:37:26;;;;;;;11.25;3.33;;;;;;;;;;4992437;28;20467;-85
2022/07/29 05:39:53;;;;;;;11.50;3.72;;;;;;;;;;4993931;28;20077;-85
2022/07/29 05:42:23;;;;;;;6.65;3.70;;;;;;;;;;4977082;28;20059;-85
2022/07/29 05:44:50;;;;;;;13.23;3.70;;;;;;;;;;4993692;28;20046;-85
2022/07/29 05:47:17;;;;;;;9.40;3.40;;;;;;;;;;4978101;28;20042;-85
2022/07/29 05:49:45;;;;;;;7.35;3.22;;;;;;;;;;4993749;28;20051;-85
2022/07/29 05:52:13;;;;;;;8.27;4.30;;;;;;;;;;4993616;28;20464;-85
2022/07/29 05:54:40;;;;;;;10.25;2.97;;;;;;;;;;4993830;28;20051;-85
2022/07/29 05:57:07;;;;;;;3.22;2.10;;;;;;;;;;4993350;28;20050;-85
2022/07/29 05:59:38;;;;;;;5.60;2.58;;;;;;;;;;4993962;28;20075;-85
2022/07/29 06:02:05;;;;;;;7.75;2.35;;;;;;;;;;4993383;28;20063;-86
2022/07/29 06:04:33;;;;;;;6.93;2.22;;;;;;;;;;4978427;28;20101;-85
2022/07/29 06:07:01;;;;;;;8.45;2.95;;;;;;;;;;4992810;28;20133;-86
2022/07/29 06:09:28;;;;;;;11.35;2.47;;;;;;;;;;4993378;28;20047;-85
2022/07/29 06:11:57;;;;;;;7.35;2.45;;;;;;;;;;4993038;28;20051;-86
2022/07/29 06:14:26;;;;;;;5.97;2.13;;;;;;;;;;4992964;28;20385;-85
2022/07/29 06:16:53;;;;;;;4.35;2.13;;;;;;;;;;4996454;28;20106;-86
2022/07/29 06:19:20;;;;;;;11.73;2.35;;;;;;;;;;4992680;28;20114;-85
2022/07/29 06:21:48;;;;;;;3.97;2.28;;;;;;;;;;4992639;28;20055;-86
2022/07/29 06:24:15;;;;;;;5.63;1.65;;;;;;;;;;4992453;28;20416;-86
2022/07/29 06:26:43;;;;;;;6.50;1.90;;;;;;;;;;4992306;28;20105;-87
2022/07/29 06:29:11;;;;;;;3.22;2.25;;;;;;;;;;4977478;28;20058;-87
2022/07/29 06:31:38;;;;;;;4.68;1.70;;;;;;;;;;4992453;28;20047;-87
2022/07/29 06:34:06;;;;;;;4.40;1.92;;;;;;;;;;4992604;28;20471;-86
2022/07/29 06:36:37;;;;;;;7.20;2.10;;;;;;;;;;4992096;28;20054;-86
2022/07/29 06:39:06;;;;;;;3.60;1.67;;;;;;;;;;4992226;28;20054;-87
2022/07/29 06:41:33;;;;;;;3.65;1.50;;;;;;;;;;4995414;28;20553;-87
2022/07/29 06:44:01;;;;;;;4.07;1.60;;;;;;;;;;4995574;28;20120;-86
2022/07/29 06:46:28;;;;;;;5.38;1.85;;;;;;;;;;4995353;28;20100;-85
2022/07/29 06:48:55;;;;;;;5.78;1.60;;;;;;;;;;4995232;28;20058;-86
2022/07/29 06:51:23;;;;;;;3.22;1.80;;;;;;;;;;4995521;28;20054;-87
2022/07/29 06:53:51;;;;;;;5.18;1.30;;;;;;;;;;4994802;28;20051;-86
2022/07/29 06:56:29;;;;;;;4.80;1.38;;;;;;;;;;4995420;28;20050;-85
2022/07/29 06:58:56;;;;;;;6.75;1.40;;;;;;;;;;4995306;28;20546;-86
2022/07/29 07:01:23;;;;;;;4.95;1.45;;;;;;;;;;4995198;28;20054;-86
2022/07/29 07:03:51;;;;;;;4.40;1.58;;;;;;;;;;4995227;28;20101;-85
2022/07/29 07:06:18;;;;;;;6.40;1.63;;;;;;;;;;4995244;28;20104;-86
2022/07/29 07:08:46;;;;;;;5.50;1.60;;;;;;;;;;4995171;28;20050;-86
2022/07/29 07:11:13;;;;;;;4.30;1.50;;;;;;;;;;4995024;28;20073;-86
2022/07/29 07:13:40;;;;;;;5.40;1.63;;;;;;;;;;4995100;28;20066;-87
2022/07/29 07:16:08;;;;;;;4.97;1.90;;;;;;;;;;4994967;28;20061;-87
2022/07/29 07:18:35;;;;;;;1.80;1.70;;;;;;;;;;4994992;28;20093;-86
2022/07/29 07:21:04;;;;;;;1.73;1.40;;;;;;;;;;4995070;28;20054;-86
2022/07/29 07:23:31;;;;;;;2.47;2.00;;;;;;;;;;4995097;28;20105;-87
2022/07/29 07:25:58;;;;;;;1.65;1.30;;;;;;;;;;4994798;28;20475;-87
2022/07/29 07:28:26;;;;;;;4.57;1.40;;;;;;;;;;4994923;28;20463;-85
2022/07/29 07:30:53;;;;;;;5.35;1.50;;;;;;;;;;4994843;28;20081;-86
2022/07/29 07:33:20;;;;;;;2.92;1.35;;;;;;;;;;4994831;28;20050;-86
2022/07/29 07:35:48;;;;;;;3.67;1.48;;;;;;;;;;4994893;28;20082;-85
2022/07/29 07:38:15;;;;;;;4.30;1.20;;;;;;;;;;4996330;28;20073;-87
2022/07/29 07:40:42;;;;;;;5.05;1.45;;;;;;;;;;4997143;28;20082;-86
2022/07/29 07:43:09;;;;;;;3.75;1.30;;;;;;;;;;4994870;28;20132;-86
2022/07/29 07:45:36;;;;;;;4.55;1.40;;;;;;;;;;4994426;28;20054;-87
2022/07/29 07:48:04;;;;;;;2.88;1.48;;;;;;;;;;4994220;28;20056;-87
2022/07/29 07:50:31;;;;;;;6.82;1.67;;;;;;;;;;4994391;28;20047;-85
2022/07/29 07:53:01;;;;;;;4.80;1.55;;;;;;;;;;4995488;28;20459;-86
2022/07/29 07:55:28;;;;;;;4.30;1.52;;;;;;;;;;4996107;28;20066;-87
2022/07/29 07:58:16;;;;;;;1.48;1.08;;;;;;;;;;4994564;28;20566;-87
2022/07/29 08:00:43;;;;;;;6.15;1.77;;;;;;;;;;4994741;28;20054;-87
2022/07/29 08:03:13;;;;;;;3.55;1.60;;;;;;;;;;4995101;28;20054;-87
2022/07/29 08:05:43;;;;;;;6.93;1.92;;;;;;;;;;4993669;28;20054;-86
2022/07/29 08:08:10;;;;;;;2.33;1.52;;;;;;;;;;4993955;28;20077;-86
2022/07/29 08:10:52;;;;;;;5.38;1.63;;;;;;;;;;4995376;28;20053;-87
2022/07/29 08:13:21;;;;;;;4.18;1.70;;;;;;;;;;4995680;28;20050;-87
2022/07/29 08:15:57;;;;;;;7.00;1.60;;;;;;;;;;4999308;28;20470;-86
2022/07/29 08:18:24;;;;;;;4.47;1.45;;;;;;;;;;4998805;28;20113;-86
2022/07/29 08:20:52;;;;;;;2.65;1.23;;;;;;;;;;4993914;28;20492;-86
2022/07/29 08:23:19;;;;;;;2.35;1.38;;;;;;;;;;4994164;28;20101;-86
2022/07/29 08:25:46;;;;;;;7.13;1.80;;;;;;;;;;4994019;28;20050;-86
2022/07/29 08:28:16;;;;;;;10.13;2.00;;;;;;;;;;4994397;28;20049;-85
2022/07/29 08:30:43;;;;;;;4.63;1.40;;;;;;;;;;4993911;28;20082;-86
2022/07/29 08:33:10;;;;;;;5.57;1.58;;;;;;;;;;4994072;28;20061;-85
2022/07/29 08:35:39;;;;;;;7.50;1.63;;;;;;;;;;4993946;28;20046;-87
2022/07/29 08:38:06;;;;;;;4.22;1.48;;;;;;;;;;4993419;28;20074;-87
2022/07/29 08:40:59;;;;;;;8.52;1.67;;;;;;;;;;5008227;28;20058;-86
2022/07/29 08:43:28;;;;;;;3.67;1.63;;;;;;;;;;5011792;28;20105;-85
2022/07/29 08:45:56;;;;;;;11.90;2.03;;;;;;;;;;5010602;28;20058;-88
2022/07/29 08:48:24;;;;;;;6.20;1.40;;;;;;;;;;5012282;28;20046;-86
2022/07/29 08:50:58;;;;;;;6.43;1.52;;;;;;;;;;5013450;28;20077;-88
2022/07/29 08:53:27;;;;;;;5.70;1.67;;;;;;;;;;5012963;28;20077;-86
2022/07/29 08:55:55;;;;;;;4.05;1.33;;;;;;;;;;4997150;28;20118;-84
2022/07/29 08:58:23;;;;;;;3.83;1.67;;;;;;;;;;5014475;28;20081;-86
2022/07/29 09:00:56;;;;;;;4.35;1.40;;;;;;;;;;5013502;28;20050;-84
2022/07/29 09:03:25;;;;;;;2.13;1.17;;;;;;;;;;5012233;28;20050;-87
2022/07/29 09:05:53;;;;;;;6.38;1.70;;;;;;;;;;5012067;28;20058;-84
2022/07/29 09:08:20;;;;;;;6.88;1.70;;;;;;;;;;5010673;28;20081;-87
2022/07/29 09:10:49;;;;;;;6.65;1.60;;;;;;;;;;5011389;28;20081;-86
2022/07/29 09:13:16;;;;;;;3.00;1.63;;;;;;;;;;5007111;28;20109;-82
2022/07/29 09:15:43;;;;;;;11.45;1.73;;;;;;;;;;5009472;28;20050;-84
2022/07/29 09:18:10;;;;;;;9.70;1.60;;;;;;;;;;5011021;28;20043;-85
2022/07/29 09:24:06;;;;;;;10.07;1.70;;;;;;;;;;5014425;28;20053;-88
2022/07/29 09:26:44;;;;;;;6.45;1.67;;;;;;;;;;5004624;28;20054;-86
2022/07/29 09:29:13;;;;;;;4.70;1.33;;;;;;;;;;5015044;28;20085;-88
2022/07/29 09:31:42;;;;;;;5.75;1.40;;;;;;;;;;5006760;28;20058;-88
2022/07/29 09:34:10;;;;;;;8.07;1.50;;;;;;;;;;5011616;28;20058;-86
2022/07/29 09:36:41;;;;;;;3.92;1.67;;;;;;;;;;5009346;28;20054;-87
2022/07/29 09:39:08;;;;;;;6.40;1.35;;;;;;;;;;5011692;28;20065;-86
2022/07/29 09:41:45;;;;;;;6.75;1.33;;;;;;;;;;5003317;28;20054;-84
2022/07/29 09:44:14;;;;;;;10.75;1.50;;;;;;;;;;5004425;28;20061;-84
2022/07/29 09:46:53;;;;;;;5.70;1.48;;;;;;;;;;5006039;28;20050;-83
2022/07/29 09:49:20;;;;;;;9.38;1.88;;;;;;;;;;5009566;28;20058;-82
2022/07/29 09:51:47;;;;;;;5.05;1.38;;;;;;;;;;5000400;28;20074;-80
2022/07/29 09:54:28;;;;;;;3.08;1.20;;;;;;;;;;4999022;28;20077;-84
2022/07/29 09:56:55;;;;;;;7.30;1.30;;;;;;;;;;4994709;28;20054;-84
2022/07/29 09:59:26;;;;;;;13.07;1.85;;;;;;;;;;4995008;28;20077;-85
2022/07/29 10:01:54;;;;;;;6.32;1.38;;;;;;;;;;4993966;28;20400;-83
2022/07/29 10:04:22;;;;;;;22.85;2.25;;;;;;;;;;4995138;28;20046;-81
2022/07/29 10:06:56;;;;;;;9.75;1.90;;;;;;;;;;4994432;28;20051;-82
2022/07/29 10:09:31;;;;;;;5.25;1.50;;;;;;;;;;4994654;28;20181;-84
2022/07/29 10:12:05;;;;;;;14.18;2.03;;;;;;;;;;4995562;28;20492;-84
2022/07/29 10:14:33;;;;;;;7.80;1.55;;;;;;;;;;4995271;28;20097;-83
2022/07/29 10:17:01;;;;;;;6.75;1.60;;;;;;;;;;4994028;28;20077;-84
2022/07/29 10:19:31;;;;;;;4.68;1.70;;;;;;;;;;4994688;28;20577;-83
2022/07/29 10:21:59;;;;;;;4.43;1.30;;;;;;;;;;4994325;28;20416;-85
2022/07/29 10:24:27;;;;;;;3.55;1.52;;;;;;;;;;4993421;28;20459;-82
2022/07/29 10:26:59;;;;;;;10.00;1.60;;;;;;;;;;4993874;28;20050;-81
2022/07/29 10:29:26;;;;;;;3.72;1.10;;;;;;;;;;4996500;28;20050;-84
2022/07/29 10:31:53;;;;;;;6.47;1.40;;;;;;;;;;4996292;28;20054;-87
2022/07/29 10:34:28;;;;;;;6.53;1.50;;;;;;;;;;4997829;28;20074;-82
2022/07/29 10:37:04;;;;;;;5.03;1.30;;;;;;;;;;4996641;28;20092;-80
2022/07/29 10:39:46;;;;;;;4.05;1.30;;;;;;;;;;4997569;28;20050;-83
2022/07/29 10:42:20;;;;;;;3.83;1.40;;;;;;;;;;5015401;28;20136;-84
2022/07/29 10:45:02;;;;;;;4.05;1.10;;;;;;;;;;5001196;28;20050;-82
2022/07/29 10:47:49;;;;;;;4.97;1.45;;;;;;;;;;5003349;28;20060;-82
2022/07/29 10:50:17;;;;;;;4.05;1.50;;;;;;;;;;5000985;28;20053;-80
2022/07/29 10:52:52;;;;;;;4.53;1.30;;;;;;;;;;5001121;28;20054;-83
2022/07/29 10:55:34;;;;;;;4.53;1.35;;;;;;;;;;5004115;28;20053;-83
2022/07/29 10:58:12;;;;;;;6.85;1.85;;;;;;;;;;5004486;28;20042;-82
2022/07/29 11:00:39;;;;;;;5.53;1.42;;;;;;;;;;5000101;28;20050;-86
2022/07/29 11:03:06;;;;;;;1.58;1.48;;;;;;;;;;5001202;28;20061;-83
2022/07/29 11:06:06;;;;;;;2.22;1.40;;;;;;;;;;5001001;28;20092;-86
2022/07/29 11:08:36;;;;;;;3.58;1.58;;;;;;;;;;4987314;28;20060;-83
2022/07/29 11:11:23;;;;;;;7.85;1.58;;;;;;;;;;5019493;28;20427;-83
2022/07/29 11:13:55;;;;;;;7.13;1.77;;;;;;;;;;5000728;28;20104;-84
2022/07/29 11:16:23;;;;;;;5.22;1.60;;;;;;;;;;5018660;28;20050;-84
2022/07/29 11:19:10;;;;;;;4.00;1.58;;;;;;;;;;5000970;28;20046;-83
2022/07/29 11:21:40;;;;;;;5.45;1.48;;;;;;;;;;5001133;28;20061;-84
2022/07/29 11:24:31;;;;;;;4.75;1.50;;;;;;;;;;5001875;28;20042;-84
2022/07/29 11:27:20;;;;;;;5.57;1.70;;;;;;;;;;5003100;28;20064;-85
2022/07/29 11:29:49;;;;;;;5.22;1.65;;;;;;;;;;4999697;28;20053;-84
2022/07/29 11:32:19;;;;;;;3.60;1.30;;;;;;;;;;4998936;28;20086;-84
2022/07/29 11:35:23;;;;;;;5.13;1.48;;;;;;;;;;5002787;28;20053;-84
2022/07/29 11:38:24;;;;;;;2.35;1.40;;;;;;;;;;5001017;28;20137;-83
2022/07/29 11:41:12;;;;;;;3.88;1.67;;;;;;;;;;4998796;28;20074;-84
2022/07/29 11:43:51;;;;;;;4.05;1.80;;;;;;;;;;4998682;28;20054;-84
2022/07/29 11:46:37;;;;;;;4.40;1.73;;;;;;;;;;4999879;28;20049;-84
2022/07/29 11:49:05;;;;;;;10.57;2.30;;;;;;;;;;4999265;28;20474;-84
2022/07/29 11:51:37;;;;;;;6.93;1.95;;;;;;;;;;4999760;28;20126;-84
2022/07/29 11:54:17;;;;;;;7.65;1.92;;;;;;;;;;5001019;28;20077;-84
2022/07/29 11:56:54;;;;;;;5.65;2.00;;;;;;;;;;5005524;28;20056;-84
2022/07/29 11:59:21;;;;;;;4.28;2.00;;;;;;;;;;5001275;28;20046;-87
2022/07/29 12:02:00;;;;;;;5.60;2.30;;;;;;;;;;5016045;28;20136;-85
2022/07/29 12:04:55;;;;;;;3.95;1.85;;;;;;;;;;5002142;28;20045;-87
2022/07/29 12:07:28;;;;;;;7.82;2.60;;;;;;;;;;5014813;28;20077;-86
2022/07/29 12:10:01;;;;;;;4.80;2.47;;;;;;;;;;4999526;28;20074;-84
2022/07/29 12:12:28;;;;;;;5.93;2.25;;;;;;;;;;4998442;28;20396;-85
2022/07/29 12:14:55;;;;;;;3.22;2.35;;;;;;;;;;5014758;28;20045;-86
2022/07/29 12:17:27;;;;;;;6.75;2.35;;;;;;;;;;4997631;28;20457;-86
2022/07/29 12:19:58;;;;;;;7.40;2.20;;;;;;;;;;4998667;28;20046;-86
2022/07/29 12:22:29;;;;;;;4.68;2.40;;;;;;;;;;5015816;28;20096;-84
2022/07/29 12:25:01;;;;;;;5.35;2.00;;;;;;;;;;4998864;28;20046;-87
2022/07/29 12:27:48;;;;;;;3.30;1.85;;;;;;;;;;5017182;28;20472;-85
2022/07/29 12:30:16;;;;;;;4.18;1.80;;;;;;;;;;5001298;28;20510;-87
2022/07/29 12:32:45;;;;;;;4.60;1.90;;;;;;;;;;4998087;28;20108;-86
2022/07/29 12:35:14;;;;;;;2.35;1.60;;;;;;;;;;4999785;28;20081;-85
2022/07/29 12:37:42;;;;;;;1.60;1.50;;;;;;;;;;4999041;28;20088;-85
2022/07/29 12:40:11;;;;;;;10.95;2.00;;;;;;;;;;4997795;28;20088;-86
2022/07/29 12:42:38;;;;;;;5.38;1.70;;;;;;;;;;4998597;28;20050;-86
2022/07/29 12:45:06;;;;;;;3.65;2.20;;;;;;;;;;4998025;28;20061;-83
2022/07/29 12:47:33;;;;;;;3.05;1.60;;;;;;;;;;4997119;28;20049;-83
2022/07/29 12:50:11;;;;;;;2.97;1.60;;;;;;;;;;4996776;28;20112;-84
2022/07/29 12:52:39;;;;;;;2.58;1.50;;;;;;;;;;4997717;28;20053;-83
2022/07/29 12:55:06;;;;;;;2.15;1.92;;;;;;;;;;5015345;28;20041;-85
2022/07/29 12:57:45;;;;;;;1.77;1.30;;;;;;;;;;4996793;28;20046;-85
2022/07/29 13:00:13;;;;;;;2.80;1.60;;;;;;;;;;4996934;28;20503;-83
2022/07/29 13:02:42;;;;;;;1.40;1.30;;;;;;;;;;4997983;28;20054;-86
2022/07/29 13:05:11;;;;;;;1.10;1.00;;;;;;;;;;4996653;28;20053;-83
2022/07/29 13:07:38;;;;;;;1.73;1.13;;;;;;;;;;4997291;28;20107;-84
2022/07/29 13:10:24;;;;;;;2.28;1.10;;;;;;;;;;4999835;28;20045;-84
2022/07/29 13:13:09;;;;;;;5.28;1.40;;;;;;;;;;4997475;28;20100;-83
2022/07/29 13:15:37;;;;;;;1.23;1.13;;;;;;;;;;4997099;28;20046;-85
2022/07/29 13:18:05;;;;;;;1.00;1.00;;;;;;;;;;4996490;28;20662;-85
2022/07/29 13:20:32;;;;;;;3.85;1.20;;;;;;;;;;4997176;28;20080;-82
2022/07/29 13:23:00;;;;;;;1.30;0.93;;;;;;;;;;4996237;28;20491;-84
2022/07/29 13:25:32;;;;;;;1.35;1.27;;;;;;;;;;4996769;28;20053;-84
2022/07/29 13:28:00;;;;;;;3.28;1.20;;;;;;;;;;4996881;28;20111;-83
2022/07/29 13:30:27;;;;;;;1.25;1.20;;;;;;;;;;4996896;28;20049;-85
2022/07/29 13:32:55;;;;;;;4.97;1.52;;;;;;;;;;4996909;28;20042;-84
2022/07/29 13:35:22;;;;;;;3.60;1.60;;;;;;;;;;4996784;28;20050;-84
2022/07/29 13:37:49;;;;;;;1.27;1.25;;;;;;;;;;4997236;28;20491;-84
2022/07/29 13:40:17;;;;;;;1.67;1.10;;;;;;;;;;4998319;28;20084;-82
2022/07/29 13:42:45;;;;;;;1.38;1.27;;;;;;;;;;4998427;28;20056;-82
2022/07/29 13:45:12;;;;;;;2.00;1.00;;;;;;;;;;4998652;28;20061;-81
2022/07/29 13:47:40;;;;;;;2.30;1.27;;;;;;;;;;4998770;28;20411;-83
2022/07/29 13:50:13;;;;;;;2.13;1.35;;;;;;;;;;4998477;28;20050;-81
2022/07/29 13:52:40;;;;;;;1.90;1.42;;;;;;;;;;4999251;28;20498;-85
2022/07/29 13:55:08;;;;;;;1.95;1.10;;;;;;;;;;4998571;28;20074;-81
2022/07/29 13:57:35;;;;;;;3.00;1.58;;;;;;;;;;4997177;28;20462;-85
2022/07/29 14:00:02;;;;;;;2.10;1.25;;;;;;;;;;4997941;28;20042;-85
2022/07/29 14:02:30;;;;;;;1.52;1.35;;;;;;;;;;4997576;28;20049;-85
2022/07/29 14:04:57;;;;;;;3.65;1.50;;;;;;;;;;5000951;28;20069;-83
2022/07/29 14:07:24;;;;;;;1.88;1.05;;;;;;;;;;5002518;28;20054;-83
2022/07/29 14:09:51;;;;;;;4.43;1.10;;;;;;;;;;5019902;28;20057;-85
2022/07/29 14:12:19;;;;;;;0.80;0.80;;;;;;;;;;5001067;28;20467;-84
2022/07/29 14:14:46;;;;;;;0.80;0.80;;;;;;;;;;5001055;28;20045;-84
2022/07/29 14:17:13;;;;;;;1.92;0.65;;;;;;;;;;5001187;28;20081;-83
2022/07/29 14:19:41;;;;;;;1.75;0.65;;;;;;;;;;5000605;28;20056;-81
2022/07/29 14:22:08;;;;;;;1.45;0.75;;;;;;;;;;5000068;28;20454;-82
2022/07/29 14:24:36;;;;;;;0.77;0.60;;;;;;;;;;5001334;28;20137;-83
2022/07/29 14:27:04;;;;;;;2.50;0.60;;;;;;;;;;5000260;28;20073;-83
2022/07/29 14:29:32;;;;;;;0.50;0.50;;;;;;;;;;5000225;28;20100;-84
2022/07/29 14:32:05;;;;;;;0.60;0.60;;;;;;;;;;5017828;28;20056;-85
2022/07/29 14:34:33;;;;;;;0.68;0.60;;;;;;;;;;4999951;28;20050;-84
2022/07/29 14:37:00;;;;;;;0.57;0.57;;;;;;;;;;4999427;28;20046;-84
2022/07/29 14:39:27;;;;;;;0.75;0.75;;;;;;;;;;5000902;28;20077;-85
2022/07/29 14:41:58;;;;;;;0.85;0.85;;;;;;;;;;4999808;28;20172;-84
2022/07/29 14:44:30;;;;;;;0.60;0.60;;;;;;;;;;5000262;28;20042;-83
2022/07/29 14:46:59;;;;;;;0.80;0.80;;;;;;;;;;5001837;28;20129;-84
2022/07/29 14:49:29;;;;;;;0.60;0.60;;;;;;;;;;5003005;28;20053;-84
2022/07/29 14:51:56;;;;;;;2.40;0.82;;;;;;;;;;5002474;28;20086;-85
2022/07/29 14:54:24;;;;;;;2.00;0.90;;;;;;;;;;5002439;28;20046;-83
2022/07/29 14:56:54;;;;;;;1.10;0.60;;;;;;;;;;5024232;28;20049;-83
2022/07/29 14:59:22;;;;;;;0.63;0.60;;;;;;;;;;5004699;28;20042;-83
2022/07/29 15:01:49;;;;;;;2.03;0.88;;;;;;;;;;5005241;28;20112;-82
2022/07/29 15:04:16;;;;;;;2.67;1.20;;;;;;;;;;5005272;28;20050;-84
2022/07/29 15:06:43;;;;;;;0.80;0.80;;;;;;;;;;5003979;28;20042;-84
2022/07/29 15:09:11;;;;;;;1.08;0.80;;;;;;;;;;5002913;28;20161;-83
2022/07/29 15:11:38;;;;;;;1.15;0.93;;;;;;;;;;5021783;28;20049;-84